Time;durP1;ratioP1;P1;durP2;ratioP2;P2;SDS_P1;SDS_P2;PMS_P1;PMS_P2;Temp;Humidity;BMP_temperature;BMP_pressure;BME280_temperature;BME280_humidity;BME280_pressure;Samples;Min_cycle;Max_cycle;Signal;HPM_P1;HPM_P2
2022/08/20 00:00:12;;;;;;;;;;;22.70;99.90;22.60;99766.00;;;;347448;28;83383;-90
2022/08/20 00:00:25;;;;;;;;;;;22.70;99.90;22.70;99753.00;;;;347907;27;96676;-90
2022/08/20 00:00:38;;;;;;;;;;;22.70;99.90;22.70;99756.00;;;;348781;27;83483;-90
2022/08/20 00:00:54;;;;;;;;;;;22.70;99.90;22.70;99751.00;;;;346610;28;96845;-89
2022/08/20 00:01:13;;;;;;;;;;;22.70;99.90;22.80;99754.00;;;;348527;27;82624;-89
2022/08/20 00:01:24;;;;;;;;;;;22.70;99.90;22.80;99756.00;;;;346610;28;96204;-89
2022/08/20 00:01:36;;;;;;;;;;;22.70;99.90;22.80;99755.00;;;;348936;27;82372;-90
2022/08/20 00:01:48;;;;;;;;;;;22.70;99.90;22.80;99758.00;;;;349090;27;94898;-90
2022/08/20 00:02:00;;;;;;;;;;;22.80;99.90;22.80;99751.00;;;;348933;27;82417;-90
2022/08/20 00:02:13;;;;;;;;;;;22.80;99.90;22.70;99749.00;;;;347956;27;97976;-90
2022/08/20 00:02:25;;;;;;;;;;;22.70;99.90;22.60;99752.00;;;;347450;28;83333;-90
2022/08/20 00:02:41;;;;;;;;;;;22.70;99.90;22.50;99759.00;;;;347855;27;96555;-89
2022/08/20 00:02:58;;;;;;;;;;;22.70;99.90;22.60;99754.00;;;;348578;27;83372;-90
2022/08/20 00:03:15;;;;;;;;;;;22.70;99.90;22.70;99747.00;;;;349004;27;95592;-90
2022/08/20 00:03:30;;;;;;;;;;;22.70;99.90;22.70;99757.00;;;;349000;27;82376;-89
2022/08/20 00:03:42;;;;;;;;;;;22.70;99.90;22.70;99755.00;;;;346754;28;96245;-89
2022/08/20 00:04:00;;;;;;;;;;;22.70;99.90;22.70;99753.00;;;;348453;27;83534;-89
2022/08/20 00:04:13;;;;;;;;;;;22.70;99.90;22.70;99741.00;;;;347990;27;96722;-90
2022/08/20 00:04:25;;;;;;;;;;;22.70;99.90;22.70;99747.00;;;;347581;28;82366;-90
2022/08/20 00:04:37;;;;;;;;;;;22.70;99.90;22.70;99751.00;;;;347770;27;96615;-90
2022/08/20 00:04:50;;;;;;;;;;;22.70;99.90;22.70;99750.00;;;;348602;27;82582;-90
2022/08/20 00:05:02;;;;;;;;;;;22.70;99.90;22.70;99753.00;;;;347870;27;96660;-89
2022/08/20 00:05:14;;;;;;;;;;;22.70;99.90;22.70;99748.00;;;;347228;28;83284;-90
2022/08/20 00:05:34;;;;;;;;;;;22.70;99.90;22.80;99745.00;;;;346267;28;95685;-90
2022/08/20 00:05:54;;;;;;;;;;;22.70;99.90;22.70;99755.00;;;;347503;28;82341;-90
2022/08/20 00:06:10;;;;;;;;;;;22.70;99.90;22.70;99750.00;;;;346555;28;95363;-89
2022/08/20 00:06:22;;;;;;;;;;;22.70;99.90;22.70;99742.00;;;;348946;27;83268;-89
2022/08/20 00:06:34;;;;;;;;;;;22.70;99.90;22.70;99750.00;;;;346603;27;95946;-89
2022/08/20 00:06:47;;;;;;;;;;;22.70;99.90;22.70;99753.00;;;;346117;28;83266;-90
2022/08/20 00:06:59;;;;;;;;;;;22.70;99.90;22.80;99753.00;;;;346434;28;97705;-90
2022/08/20 00:07:11;;;;;;;;;;;22.70;99.90;22.70;99752.00;;;;348640;27;83399;-90
2022/08/20 00:07:23;;;;;;;;;;;22.70;99.90;22.70;99743.00;;;;349234;27;94547;-90
2022/08/20 00:07:35;;;;;;;;;;;22.70;99.90;22.50;99751.00;;;;348934;27;82451;-90
2022/08/20 00:07:47;;;;;;;;;;;22.70;99.90;22.50;99756.00;;;;346648;28;96235;-89
2022/08/20 00:07:59;;;;;;;;;;;22.70;99.90;22.60;99756.00;;;;348719;27;82368;-90
2022/08/20 00:08:11;;;;;;;;;;;22.70;99.90;22.60;99753.00;;;;347851;27;96863;-90
2022/08/20 00:08:22;;;;;;;;;;;22.70;99.90;22.70;99746.00;;;;347287;28;82567;-90
2022/08/20 00:08:35;;;;;;;;;;;22.70;99.90;22.70;99748.00;;;;347748;27;95897;-90
2022/08/20 00:08:46;;;;;;;;;;;22.70;99.90;22.60;99743.00;;;;348885;27;83358;-89
2022/08/20 00:08:58;;;;;;;;;;;22.70;99.90;22.60;99742.00;;;;347905;27;94804;-90
2022/08/20 00:09:10;;;;;;;;;;;22.60;99.90;22.60;99753.00;;;;348740;27;82522;-89
2022/08/20 00:09:22;;;;;;;;;;;22.70;99.90;22.70;99756.00;;;;348048;27;96640;-89
2022/08/20 00:09:33;;;;;;;;;;;22.70;99.90;22.60;99755.00;;;;347367;28;83501;-90
2022/08/20 00:09:47;;;;;;;;;;;22.60;99.90;22.70;99750.00;;;;347798;27;95737;-90
2022/08/20 00:09:59;;;;;;;;;;;22.60;99.90;22.70;99752.00;;;;348635;27;82630;-89
2022/08/20 00:10:11;;;;;;;;;;;22.70;99.90;22.60;99754.00;;;;345334;28;95612;-89
2022/08/20 00:10:23;;;;;;;;;;;22.60;99.90;22.60;99756.00;;;;346067;28;82439;-90
2022/08/20 00:10:35;;;;;;;;;;;22.60;99.90;22.60;99757.00;;;;345188;28;96435;-90
2022/08/20 00:10:48;;;;;;;;;;;22.60;99.90;22.60;99747.00;;;;347566;28;82526;-90
2022/08/20 00:11:08;;;;;;;;;;;22.60;99.90;22.60;99751.00;;;;347763;27;97320;-90
2022/08/20 00:11:22;;;;;;;;;;;22.70;99.90;22.60;99749.00;;;;348851;27;83297;-89
2022/08/20 00:11:35;;;;;;;;;;;22.60;99.90;22.60;99751.00;;;;350681;27;97566;-90
2022/08/20 00:11:47;;;;;;;;;;;22.60;99.90;22.60;99747.00;;;;348805;27;82519;-89
2022/08/20 00:12:00;;;;;;;;;;;22.60;99.90;22.60;99753.00;;;;345196;28;96643;-90
2022/08/20 00:12:12;;;;;;;;;;;22.60;99.90;22.60;99751.00;;;;348919;27;83284;-90
2022/08/20 00:12:24;;;;;;;;;;;22.60;99.90;22.60;99748.00;;;;346374;28;96669;-90
2022/08/20 00:12:36;;;;;;;;;;;22.60;99.90;22.70;99746.00;;;;346012;28;83483;-90
2022/08/20 00:12:48;;;;;;;;;;;22.60;99.90;22.70;99755.00;;;;348108;27;96188;-89
2022/08/20 00:13:00;;;;;;;;;;;22.60;99.90;22.60;99751.00;;;;348771;27;83385;-89
2022/08/20 00:13:16;;;;;;;;;;;22.60;99.90;22.60;99745.00;;;;349336;27;98229;-89
2022/08/20 00:13:32;;;;;;;;;;;22.60;99.90;22.60;99756.00;;;;348921;27;82524;-89
2022/08/20 00:13:46;;;;;;;;;;;22.60;99.90;22.60;99749.00;;;;346392;28;95651;-90
2022/08/20 00:13:59;;;;;;;;;;;22.60;99.90;22.60;99750.00;;;;347295;28;82601;-89
2022/08/20 00:14:11;;;;;;;;;;;22.60;99.90;22.60;99746.00;;;;346602;28;97336;-89
2022/08/20 00:14:23;;;;;;;;;;;22.60;99.90;22.60;99742.00;;;;347509;28;83335;-89
2022/08/20 00:14:34;;;;;;;;;;;22.60;99.90;22.60;99741.00;;;;346625;28;96347;-90
2022/08/20 00:14:46;;;;;;;;;;;22.60;99.90;22.50;99749.00;;;;348815;27;83430;-89
2022/08/20 00:14:58;;;;;;;;;;;22.60;99.90;22.60;99740.00;;;;347963;27;96426;-88
2022/08/20 00:15:11;;;;;;;;;;;22.60;99.90;22.60;99745.00;;;;347311;28;83382;-90
2022/08/20 00:15:27;;;;;;;;;;;22.60;99.90;22.60;99743.00;;;;348049;27;96961;-90
2022/08/20 00:15:38;;;;;;;;;;;22.60;99.90;22.50;99745.00;;;;350268;27;83336;-89
2022/08/20 00:15:50;;;;;;;;;;;22.60;99.90;22.50;99746.00;;;;346345;28;95133;-89
2022/08/20 00:16:03;;;;;;;;;;;22.60;99.90;22.50;99751.00;;;;347474;28;83347;-90
2022/08/20 00:16:15;;;;;;;;;;;22.60;99.90;22.60;99748.00;;;;345342;28;94136;-90
2022/08/20 00:16:31;;;;;;;;;;;22.60;99.90;22.50;99746.00;;;;351362;27;82504;-89
2022/08/20 00:16:43;;;;;;;;;;;22.60;99.90;22.50;99748.00;;;;346665;28;95844;-89
2022/08/20 00:16:55;;;;;;;;;;;22.60;99.90;22.50;99744.00;;;;347536;28;82424;-89
2022/08/20 00:17:10;;;;;;;;;;;22.50;99.90;22.50;99741.00;;;;346560;28;96762;-89
2022/08/20 00:17:22;;;;;;;;;;;22.50;99.90;22.50;99741.00;;;;347494;28;83328;-90
2022/08/20 00:17:36;;;;;;;;;;;22.50;99.90;22.40;99741.00;;;;348005;27;98073;-89
2022/08/20 00:17:51;;;;;;;;;;;22.60;99.90;22.40;99748.00;;;;347409;28;82494;-89
2022/08/20 00:18:03;;;;;;;;;;;22.50;99.90;22.40;99747.00;;;;347620;27;95559;-89
2022/08/20 00:18:15;;;;;;;;;;;22.50;99.90;22.50;99746.00;;;;348588;27;83405;-90
2022/08/20 00:18:27;;;;;;;;;;;22.50;99.90;22.50;99748.00;;;;349532;27;92610;-89
2022/08/20 00:18:40;;;;;;;;;;;22.50;99.90;22.50;99748.00;;;;347489;28;82278;-89
2022/08/20 00:18:51;;;;;;;;;;;22.50;99.90;22.50;99751.00;;;;346631;28;97185;-89
2022/08/20 00:19:05;;;;;;;;;;;22.50;99.90;22.50;99742.00;;;;347435;28;83433;-89
2022/08/20 00:19:17;;;;;;;;;;;22.50;99.90;22.50;99742.00;;;;346486;28;95161;-89
2022/08/20 00:19:29;;;;;;;;;;;22.50;99.90;22.40;99750.00;;;;348657;27;82351;-90
2022/08/20 00:19:40;;;;;;;;;;;22.50;99.90;22.50;99747.00;;;;346351;28;96981;-90
2022/08/20 00:19:52;;;;;;;;;;;22.50;99.90;22.50;99754.00;;;;348460;27;83417;-89
2022/08/20 00:20:07;;;;;;;;;;;22.50;99.90;22.50;99753.00;;;;349175;27;97468;-89
2022/08/20 00:20:20;;;;;;;;;;;22.50;99.90;22.50;99749.00;;;;348669;27;83383;-89
2022/08/20 00:20:36;;;;;;;;;;;22.50;99.90;22.50;99756.00;;;;347837;27;95238;-89
2022/08/20 00:20:50;;;;;;;;;;;22.50;99.90;22.40;99750.00;;;;350013;27;83982;-89
2022/08/20 00:21:03;;;;;;;;;;;22.50;99.90;22.40;99746.00;;;;349177;27;95947;-89
2022/08/20 00:21:15;;;;;;;;;;;22.50;99.90;22.40;99746.00;;;;348463;27;82637;-89
2022/08/20 00:21:30;;;;;;;;;;;22.50;99.90;22.40;99750.00;;;;347829;27;96624;-89
2022/08/20 00:21:42;;;;;;;;;;;22.50;99.90;22.40;99747.00;;;;351441;27;82494;-89
2022/08/20 00:21:53;;;;;;;;;;;22.50;99.90;22.40;99747.00;;;;347944;27;94205;-90
2022/08/20 00:22:09;;;;;;;;;;;22.50;99.90;22.50;99744.00;;;;346066;28;83573;-89
2022/08/20 00:22:20;;;;;;;;;;;22.50;99.90;22.40;99738.00;;;;346738;28;95401;-90
2022/08/20 00:22:32;;;;;;;;;;;22.50;99.90;22.40;99743.00;;;;348757;27;83371;-89
2022/08/20 00:22:44;;;;;;;;;;;22.50;99.90;22.40;99755.00;;;;348169;27;95473;-89
2022/08/20 00:22:56;;;;;;;;;;;22.50;99.90;22.40;99747.00;;;;347671;27;82517;-89
2022/08/20 00:23:08;;;;;;;;;;;22.50;99.90;22.40;99750.00;;;;346291;28;95140;-89
2022/08/20 00:23:21;;;;;;;;;;;22.50;99.90;22.40;99751.00;;;;347221;28;82498;-89
2022/08/20 00:23:36;;;;;;;;;;;22.50;99.90;22.50;99750.00;;;;346685;28;95593;-89
2022/08/20 00:23:49;;;;;;;;;;;22.50;99.90;22.50;99749.00;;;;348835;27;82285;-90
2022/08/20 00:24:01;;;;;;;;;;;22.50;99.90;22.50;99747.00;;;;347891;27;97740;-89
2022/08/20 00:24:13;;;;;;;;;;;22.50;99.90;22.50;99754.00;;;;347202;28;83383;-90
2022/08/20 00:24:24;;;;;;;;;;;22.50;99.90;22.50;99747.00;;;;346719;28;97323;-89
2022/08/20 00:24:36;;;;;;;;;;;22.50;99.90;22.40;99750.00;;;;350245;27;83374;-89
2022/08/20 00:24:48;;;;;;;;;;;22.50;99.90;22.40;99754.00;;;;346522;28;96233;-89
2022/08/20 00:25:01;;;;;;;;;;;22.50;99.90;22.40;99749.00;;;;347481;28;83185;-90
2022/08/20 00:25:13;;;;;;;;;;;22.50;99.90;22.40;99745.00;;;;347935;27;97253;-89
2022/08/20 00:25:25;;;;;;;;;;;22.50;99.90;22.40;99750.00;;;;347421;28;82557;-89
2022/08/20 00:25:37;;;;;;;;;;;22.50;99.90;22.40;99751.00;;;;345168;28;95238;-89
2022/08/20 00:25:49;;;;;;;;;;;22.50;99.90;22.40;99748.00;;;;348602;27;83480;-90
2022/08/20 00:26:01;;;;;;;;;;;22.50;99.90;22.40;99746.00;;;;346682;28;94724;-90
2022/08/20 00:26:12;;;;;;;;;;;22.50;99.90;22.40;99748.00;;;;347442;28;83327;-89
2022/08/20 00:26:24;;;;;;;;;;;22.50;99.90;22.40;99748.00;;;;346654;28;96052;-89
2022/08/20 00:26:36;;;;;;;;;;;22.50;99.90;22.40;99743.00;;;;347230;28;83604;-89
2022/08/20 00:27:02;;;;;;;;;;;22.50;99.90;22.40;99754.00;;;;345604;28;94258;-89
2022/08/20 00:27:14;;;;;;;;;;;22.50;99.90;22.40;99753.00;;;;346224;28;83525;-89
2022/08/20 00:27:26;;;;;;;;;;;22.50;99.90;22.40;99747.00;;;;349403;27;96881;-90
2022/08/20 00:27:38;;;;;;;;;;;22.50;99.90;22.40;99747.00;;;;347565;28;83383;-89
2022/08/20 00:27:49;;;;;;;;;;;22.50;99.90;22.30;99749.00;;;;346799;28;96746;-89
2022/08/20 00:28:02;;;;;;;;;;;22.40;99.90;22.40;99755.00;;;;346352;28;82422;-89
2022/08/20 00:28:14;;;;;;;;;;;22.50;99.90;22.40;99748.00;;;;346794;28;97298;-89
2022/08/20 00:28:26;;;;;;;;;;;22.50;99.90;22.30;99746.00;;;;347430;28;83440;-89
2022/08/20 00:28:38;;;;;;;;;;;22.50;99.90;22.30;99743.00;;;;346656;28;96326;-89
2022/08/20 00:28:50;;;;;;;;;;;22.40;99.90;22.40;99745.00;;;;347424;28;83455;-89
2022/08/20 00:29:01;;;;;;;;;;;22.50;99.90;22.40;99749.00;;;;345484;28;96719;-89
2022/08/20 00:29:15;;;;;;;;;;;22.40;99.90;22.40;99748.00;;;;344847;28;83618;-89
2022/08/20 00:29:30;;;;;;;;;;;22.40;99.90;22.50;99741.00;;;;345607;28;95623;-90
2022/08/20 00:29:42;;;;;;;;;;;22.40;99.90;22.50;99741.00;;;;347508;28;83449;-89
2022/08/20 00:29:54;;;;;;;;;;;22.40;99.90;22.40;99749.00;;;;349720;27;93176;-89
2022/08/20 00:30:08;;;;;;;;;;;22.40;99.90;22.40;99747.00;;;;347425;28;83510;-90
2022/08/20 00:30:20;;;;;;;;;;;22.40;99.90;22.40;99752.00;;;;345351;28;98163;-89
2022/08/20 00:30:33;;;;;;;;;;;22.40;99.90;22.40;99743.00;;;;348791;27;82579;-89
2022/08/20 00:30:45;;;;;;;;;;;22.50;99.90;22.30;99741.00;;;;345498;28;96328;-88
2022/08/20 00:30:57;;;;;;;;;;;22.40;99.90;22.30;99747.00;;;;347407;28;83473;-89
2022/08/20 00:31:10;;;;;;;;;;;22.40;99.90;22.30;99742.00;;;;346848;28;95217;-90
2022/08/20 00:31:22;;;;;;;;;;;22.40;99.90;22.30;99741.00;;;;347246;27;83602;-90
2022/08/20 00:31:34;;;;;;;;;;;22.40;99.90;22.30;99740.00;;;;346906;28;96566;-89
2022/08/20 00:31:49;;;;;;;;;;;22.40;99.90;22.30;99740.00;;;;347522;27;83428;-89
2022/08/20 00:32:01;;;;;;;;;;;22.40;99.90;22.30;99738.00;;;;348372;27;93177;-89
2022/08/20 00:32:12;;;;;;;;;;;22.40;99.90;22.20;99742.00;;;;347514;28;83270;-89
2022/08/20 00:32:24;;;;;;;;;;;22.40;99.90;22.30;99734.00;;;;344016;28;98433;-89
2022/08/20 00:32:46;;;;;;;;;;;22.40;99.90;22.30;99742.00;;;;346293;28;83526;-89
2022/08/20 00:33:00;;;;;;;;;;;22.40;99.90;22.40;99742.00;;;;345526;28;96731;-89
2022/08/20 00:33:17;;;;;;;;;;;22.40;99.90;22.40;99737.00;;;;345967;28;83395;-90
2022/08/20 00:33:30;;;;;;;;;;;22.40;99.90;22.30;99735.00;;;;346996;28;95468;-90
2022/08/20 00:33:41;;;;;;;;;;;22.40;99.90;22.30;99747.00;;;;346337;28;82402;-90
2022/08/20 00:33:53;;;;;;;;;;;22.40;99.90;22.30;99740.00;;;;346831;28;97007;-89
2022/08/20 00:34:05;;;;;;;;;;;22.40;99.90;22.30;99740.00;;;;347665;28;82272;-89
2022/08/20 00:34:17;;;;;;;;;;;22.30;99.90;22.30;99747.00;;;;348418;27;93023;-89
2022/08/20 00:34:29;;;;;;;;;;;22.30;99.90;22.20;99746.00;;;;346253;28;82566;-90
2022/08/20 00:34:41;;;;;;;;;;;22.30;99.90;22.30;99740.00;;;;346840;28;97563;-89
2022/08/20 00:34:53;;;;;;;;;;;22.30;99.90;22.30;99742.00;;;;347604;28;83359;-89
2022/08/20 00:35:05;;;;;;;;;;;22.30;99.90;22.30;99747.00;;;;346888;28;95839;-90
2022/08/20 00:35:18;;;;;;;;;;;22.30;99.90;22.30;99736.00;;;;347596;28;82407;-89
2022/08/20 00:35:32;;;;;;;;;;;22.40;99.90;22.30;99739.00;;;;345396;28;96728;-89
2022/08/20 00:35:47;;;;;;;;;;;22.30;99.90;22.30;99740.00;;;;346324;28;83401;-89
2022/08/20 00:36:05;;;;;;;;;;;22.30;99.90;22.30;99746.00;;;;348182;27;95387;-89
2022/08/20 00:36:17;;;;;;;;;;;22.30;99.90;22.30;99746.00;;;;347364;28;82570;-89
2022/08/20 00:36:28;;;;;;;;;;;22.30;99.90;22.40;99741.00;;;;346603;28;95693;-89
2022/08/20 00:36:43;;;;;;;;;;;22.40;99.90;22.40;99748.00;;;;347753;28;82672;-89
2022/08/20 00:36:55;;;;;;;;;;;22.30;99.90;22.40;99746.00;;;;345424;28;98272;-89
2022/08/20 00:37:07;;;;;;;;;;;22.40;99.90;22.30;99750.00;;;;347416;28;83430;-89
2022/08/20 00:37:19;;;;;;;;;;;22.40;99.90;22.40;99754.00;;;;348188;27;97285;-89
2022/08/20 00:37:31;;;;;;;;;;;22.30;99.90;22.40;99748.00;;;;350304;27;82612;-90
2022/08/20 00:37:43;;;;;;;;;;;22.30;99.90;22.40;99752.00;;;;345599;28;95307;-89
2022/08/20 00:37:55;;;;;;;;;;;22.30;99.90;22.40;99749.00;;;;347736;28;82438;-89
2022/08/20 00:38:11;;;;;;;;;;;22.30;99.90;22.40;99745.00;;;;349756;27;93487;-89
2022/08/20 00:38:23;;;;;;;;;;;22.40;99.90;22.40;99753.00;;;;347733;28;82589;-89
2022/08/20 00:38:36;;;;;;;;;;;22.30;99.90;22.50;99747.00;;;;346713;28;96147;-90
2022/08/20 00:38:48;;;;;;;;;;;22.40;99.90;22.50;99749.00;;;;347429;28;83924;-89
2022/08/20 00:39:00;;;;;;;;;;;22.40;99.90;22.50;99748.00;;;;348254;27;97381;-89
2022/08/20 00:39:12;;;;;;;;;;;22.40;99.90;22.50;99753.00;;;;349152;27;82483;-89
2022/08/20 00:39:24;;;;;;;;;;;22.40;99.90;22.40;99752.00;;;;348073;27;95233;-90
2022/08/20 00:39:35;;;;;;;;;;;22.40;99.90;22.40;99755.00;;;;345025;28;83220;-90
2022/08/20 00:39:47;;;;;;;;;;;22.40;99.90;22.40;99759.00;;;;344077;28;96838;-89
2022/08/20 00:40:00;;;;;;;;;;;22.40;99.90;22.40;99756.00;;;;348846;27;83357;-89
2022/08/20 00:40:14;;;;;;;;;;;22.40;99.90;22.30;99753.00;;;;348350;27;93776;-89
2022/08/20 00:40:36;;;;;;;;;;;22.40;99.90;22.30;99749.00;;;;348898;27;83695;-89
2022/08/20 00:40:56;;;;;;;;;;;22.40;99.90;22.20;99755.00;;;;345321;28;96618;-90
2022/08/20 00:41:11;;;;;;;;;;;22.30;99.90;22.30;99758.00;;;;349027;27;82373;-89
2022/08/20 00:41:24;;;;;;;;;;;22.30;99.90;22.40;99757.00;;;;345231;28;98078;-89
2022/08/20 00:41:36;;;;;;;;;;;22.30;99.90;22.30;99753.00;;;;347699;28;83463;-90
2022/08/20 00:41:48;;;;;;;;;;;22.40;99.90;22.30;99752.00;;;;349433;27;94400;-90
2022/08/20 00:42:00;;;;;;;;;;;22.30;99.90;22.40;99755.00;;;;347542;28;82523;-90
2022/08/20 00:42:12;;;;;;;;;;;22.30;99.90;22.40;99747.00;;;;346618;28;94497;-89
2022/08/20 00:42:24;;;;;;;;;;;22.30;99.90;22.40;99756.00;;;;347671;28;83416;-89
2022/08/20 00:42:41;;;;;;;;;;;22.30;99.90;22.30;99753.00;;;;346714;28;96223;-90
2022/08/20 00:42:57;;;;;;;;;;;22.30;99.90;22.30;99759.00;;;;347776;28;82459;-89
2022/08/20 00:43:24;;;;;;;;;;;22.30;99.90;22.30;99758.00;;;;345358;28;95929;-89
2022/08/20 00:43:41;;;;;;;;;;;22.30;99.90;22.40;99754.00;;;;347615;28;83446;-90
2022/08/20 00:44:09;;;;;;;;;;;22.30;99.90;22.40;99757.00;;;;346770;28;94943;-90
2022/08/20 00:44:21;;;;;;;;;;;22.30;99.90;22.40;99764.00;;;;347601;27;82523;-89
2022/08/20 00:44:33;;;;;;;;;;;22.30;99.90;22.50;99760.00;;;;346223;28;96060;-90
2022/08/20 00:44:45;;;;;;;;;;;22.30;99.90;22.40;99757.00;;;;347613;28;82368;-88
2022/08/20 00:44:57;;;;;;;;;;;22.40;99.90;22.30;99758.00;;;;346785;28;96804;-90
2022/08/20 00:45:10;;;;;;;;;;;22.30;99.90;22.40;99755.00;;;;346166;28;83403;-89
2022/08/20 00:45:21;;;;;;;;;;;22.30;99.90;22.40;99753.00;;;;348214;27;96636;-90
2022/08/20 00:45:34;;;;;;;;;;;22.30;99.90;22.40;99755.00;;;;347634;28;83296;-89
2022/08/20 00:45:45;;;;;;;;;;;22.30;99.90;22.40;99753.00;;;;345463;28;96579;-90
2022/08/20 00:45:58;;;;;;;;;;;22.40;99.90;22.40;99760.00;;;;344854;28;83290;-90
2022/08/20 00:46:22;;;;;;;;;;;22.30;99.90;22.40;99757.00;;;;345398;28;97668;-89
2022/08/20 00:46:42;;;;;;;;;;;22.40;99.90;22.40;99754.00;;;;346363;28;82508;-90
2022/08/20 00:46:54;;;;;;;;;;;22.40;99.90;22.40;99761.00;;;;344129;28;96665;-90
2022/08/20 00:47:08;;;;;;;;;;;22.30;99.90;22.30;99758.00;;;;346171;28;83398;-89
2022/08/20 00:47:19;;;;;;;;;;;22.30;99.90;22.40;99751.00;;;;346812;28;96056;-89
2022/08/20 00:47:31;;;;;;;;;;;22.30;99.90;22.40;99760.00;;;;346333;28;83383;-90
2022/08/20 00:47:43;;;;;;;;;;;22.30;99.90;22.30;99753.00;;;;342868;28;95555;-90
2022/08/20 00:48:02;;;;;;;;;;;22.30;99.90;22.30;99757.00;;;;347463;28;83533;-90
2022/08/20 00:48:14;;;;;;;;;;;22.30;99.90;22.30;99754.00;;;;345539;28;94560;-90
2022/08/20 00:48:30;;;;;;;;;;;22.30;99.90;22.30;99754.00;;;;348678;27;83559;-89
2022/08/20 00:48:49;;;;;;;;;;;22.30;99.90;22.40;99756.00;;;;346537;28;96605;-90
2022/08/20 00:49:02;;;;;;;;;;;22.30;99.90;22.30;99752.00;;;;347666;28;83377;-90
2022/08/20 00:49:21;;;;;;;;;;;22.30;99.90;22.40;99750.00;;;;344028;28;95759;-89
2022/08/20 00:49:32;;;;;;;;;;;22.30;99.90;22.40;99756.00;;;;346351;28;83566;-89
2022/08/20 00:49:44;;;;;;;;;;;22.30;99.90;22.40;99757.00;;;;346822;28;97546;-88
2022/08/20 00:49:56;;;;;;;;;;;22.30;99.90;22.40;99757.00;;;;346006;28;83496;-89
2022/08/20 00:50:12;;;;;;;;;;;22.30;99.90;22.40;99753.00;;;;345465;28;97342;-89
2022/08/20 00:50:33;;;;;;;;;;;22.30;99.90;22.40;99754.00;;;;346321;28;83299;-89
2022/08/20 00:50:44;;;;;;;;;;;22.30;99.90;22.40;99761.00;;;;345405;28;95695;-89
2022/08/20 00:51:11;;;;;;;;;;;22.30;99.90;22.40;99754.00;;;;347698;28;82463;-89
2022/08/20 00:51:27;;;;;;;;;;;22.30;99.90;22.40;99757.00;;;;345345;28;95708;-89
2022/08/20 00:51:43;;;;;;;;;;;22.40;99.90;22.50;99759.00;;;;346221;28;83467;-89
2022/08/20 00:52:08;;;;;;;;;;;22.40;99.90;22.50;99758.00;;;;345404;28;96795;-89
2022/08/20 00:52:20;;;;;;;;;;;22.40;99.90;22.40;99754.00;;;;346284;28;83320;-89
2022/08/20 00:52:32;;;;;;;;;;;22.30;99.90;22.40;99752.00;;;;344057;28;97632;-89
2022/08/20 00:52:45;;;;;;;;;;;22.40;99.90;22.40;99757.00;;;;344890;28;83350;-89
2022/08/20 00:53:01;;;;;;;;;;;22.30;99.90;22.40;99767.00;;;;345565;28;95607;-89
2022/08/20 00:53:13;;;;;;;;;;;22.30;99.90;22.30;99757.00;;;;346325;28;82570;-89
2022/08/20 00:53:25;;;;;;;;;;;22.30;99.90;22.30;99762.00;;;;348352;27;96251;-89
2022/08/20 00:53:37;;;;;;;;;;;22.30;99.90;22.30;99762.00;;;;347654;28;83462;-89
2022/08/20 00:53:49;;;;;;;;;;;22.30;99.90;22.30;99753.00;;;;345122;28;94459;-88
2022/08/20 00:54:23;;;;;;;;;;;22.30;99.90;22.30;99758.00;;;;345020;28;82494;-89
2022/08/20 00:54:48;;;;;;;;;;;22.30;99.90;22.30;99762.00;;;;344032;28;97352;-89
2022/08/20 00:55:04;;;;;;;;;;;22.30;99.90;22.40;99766.00;;;;344886;28;83450;-89
2022/08/20 00:55:16;;;;;;;;;;;22.30;99.90;22.40;99745.00;;;;344094;28;96026;-89
2022/08/20 00:55:28;;;;;;;;;;;22.30;99.90;22.30;99754.00;;;;347835;28;82401;-89
2022/08/20 00:55:42;;;;;;;;;;;22.30;99.90;22.30;99749.00;;;;346864;28;96768;-89
2022/08/20 00:55:54;;;;;;;;;;;22.30;99.90;22.30;99755.00;;;;346206;28;83360;-89
2022/08/20 00:56:06;;;;;;;;;;;22.30;99.90;22.30;99748.00;;;;345545;28;95156;-90
2022/08/20 00:56:18;;;;;;;;;;;22.30;99.90;22.30;99745.00;;;;346418;28;82548;-89
2022/08/20 00:56:32;;;;;;;;;;;22.30;99.90;22.30;99761.00;;;;343925;28;95110;-89
2022/08/20 00:56:45;;;;;;;;;;;22.30;99.90;22.30;99755.00;;;;346292;28;82295;-89
2022/08/20 00:57:06;;;;;;;;;;;22.30;99.90;22.40;99750.00;;;;346501;28;95571;-89
2022/08/20 00:57:25;;;;;;;;;;;22.30;99.90;22.20;99749.00;;;;344900;28;83378;-89
2022/08/20 00:57:39;;;;;;;;;;;22.30;99.90;22.30;99761.00;;;;345319;28;97585;-89
2022/08/20 00:58:11;;;;;;;;;;;22.30;99.90;22.30;99748.00;;;;346345;28;83422;-89
2022/08/20 00:58:23;;;;;;;;;;;22.30;99.90;22.30;99748.00;;;;346964;28;96384;-90
2022/08/20 00:58:36;;;;;;;;;;;22.30;99.90;22.40;99751.00;;;;347615;28;82532;-89
2022/08/20 00:58:50;;;;;;;;;;;22.20;99.90;22.30;99750.00;;;;345531;28;96590;-89
2022/08/20 00:59:02;;;;;;;;;;;22.20;99.90;22.20;99755.00;;;;344883;28;82524;-90
2022/08/20 00:59:17;;;;;;;;;;;22.30;99.90;22.20;99751.00;;;;342591;28;97515;-89
2022/08/20 00:59:31;;;;;;;;;;;22.20;99.90;22.20;99749.00;;;;347463;28;83343;-89
2022/08/20 00:59:43;;;;;;;;;;;22.20;99.90;22.10;99751.00;;;;344109;28;97316;-89
2022/08/20 00:59:56;;;;;;;;;;;22.30;99.90;22.10;99753.00;;;;347591;28;83169;-89
2022/08/20 01:00:17;;;;;;;;;;;22.20;99.90;22.10;99747.00;;;;345622;28;94480;-89
2022/08/20 01:00:41;;;;;;;;;;;22.20;99.90;22.20;99753.00;;;;347473;28;83349;-89
2022/08/20 01:00:53;;;;;;;;;;;22.20;99.90;22.20;99751.00;;;;345514;28;94152;-90
2022/08/20 01:01:05;;;;;;;;;;;22.20;99.90;22.20;99748.00;;;;346290;28;82324;-89
2022/08/20 01:01:18;;;;;;;;;;;22.20;99.90;22.20;99748.00;;;;346889;28;93735;-89
2022/08/20 01:01:33;;;;;;;;;;;22.20;99.90;22.10;99744.00;;;;344968;28;83356;-89
2022/08/20 01:02:10;;;;;;;;;;;22.20;99.90;22.10;99749.00;;;;345409;28;97412;-90
2022/08/20 01:02:24;;;;;;;;;;;22.20;99.90;22.10;99752.00;;;;346423;28;83384;-89
2022/08/20 01:02:36;;;;;;;;;;;22.20;99.90;22.20;99758.00;;;;346048;28;94156;-89
2022/08/20 01:02:52;;;;;;;;;;;22.20;99.90;22.20;99755.00;;;;347889;28;82592;-89
2022/08/20 01:03:08;;;;;;;;;;;22.20;99.90;22.10;99753.00;;;;347129;28;96780;-88
2022/08/20 01:03:20;;;;;;;;;;;22.20;99.90;22.20;99751.00;;;;345578;28;83485;-89
2022/08/20 01:03:32;;;;;;;;;;;22.20;99.90;22.20;99750.00;;;;345844;28;96471;-89
2022/08/20 01:03:44;;;;;;;;;;;22.20;99.90;22.10;99752.00;;;;347599;28;83291;-88
2022/08/20 01:03:57;;;;;;;;;;;22.20;99.90;22.00;99744.00;;;;344051;28;96511;-89
2022/08/20 01:04:09;;;;;;;;;;;22.20;99.90;22.00;99749.00;;;;344908;28;83373;-89
2022/08/20 01:04:22;;;;;;;;;;;22.20;99.90;22.00;99752.00;;;;345498;28;97020;-89
2022/08/20 01:04:33;;;;;;;;;;;22.20;99.90;22.00;99750.00;;;;344844;28;83178;-89
2022/08/20 01:04:51;;;;;;;;;;;22.10;99.90;22.10;99749.00;;;;345454;28;95508;-89
2022/08/20 01:05:03;;;;;;;;;;;22.20;99.90;22.10;99750.00;;;;346263;28;83252;-89
2022/08/20 01:05:15;;;;;;;;;;;22.10;99.90;22.10;99747.00;;;;345459;28;96413;-89
2022/08/20 01:05:27;;;;;;;;;;;22.10;99.90;22.00;99747.00;;;;346361;28;82524;-89
2022/08/20 01:05:44;;;;;;;;;;;22.20;99.90;22.10;99750.00;;;;345470;28;97464;-89
2022/08/20 01:05:56;;;;;;;;;;;22.20;99.90;22.10;99745.00;;;;346134;28;83600;-89
2022/08/20 01:06:10;;;;;;;;;;;22.10;99.90;22.00;99752.00;;;;344112;28;96220;-89
2022/08/20 01:06:23;;;;;;;;;;;22.20;99.90;22.00;99741.00;;;;344876;28;83296;-89
2022/08/20 01:06:37;;;;;;;;;;;22.20;99.90;22.00;99751.00;;;;345456;28;96669;-89
2022/08/20 01:06:49;;;;;;;;;;;22.10;99.90;22.10;99743.00;;;;344720;28;82529;-89
2022/08/20 01:07:04;;;;;;;;;;;22.10;99.90;22.10;99749.00;;;;344142;28;96719;-90
2022/08/20 01:07:19;;;;;;;;;;;22.10;99.90;22.20;99748.00;;;;346200;28;83486;-89
2022/08/20 01:07:33;;;;;;;;;;;22.10;99.90;22.20;99749.00;;;;344128;28;96259;-90
2022/08/20 01:07:47;;;;;;;;;;;22.10;99.90;22.10;99751.00;;;;346317;28;83446;-89
2022/08/20 01:08:02;;;;;;;;;;;22.10;99.90;22.10;99750.00;;;;345546;28;93803;-89
2022/08/20 01:08:16;;;;;;;;;;;22.10;99.90;22.10;99745.00;;;;344963;28;83265;-89